sensor_id;sensor_type;location;lat;lon;timestamp;temperature;humidity
10536;DHT22;5316;49.538;8.352;2023-08-12T00:00:55;23.80;54.50
10536;DHT22;5316;49.538;8.352;2023-08-12T00:03:22;23.80;20.80
10536;DHT22;5316;49.538;8.352;2023-08-12T00:05:52;23.80;12.20
10536;DHT22;5316;49.538;8.352;2023-08-12T00:08:20;23.70;99.90
10536;DHT22;5316;49.538;8.352;2023-08-12T00:10:47;23.70;99.90
10536;DHT22;5316;49.538;8.352;2023-08-12T00:13:14;23.70;99.90
10536;DHT22;5316;49.538;8.352;2023-08-12T00:15:43;23.70;99.90
10536;DHT22;5316;49.538;8.352;2023-08-12T00:18:10;23.60;99.90
10536;DHT22;5316;49.538;8.352;2023-08-12T00:20:37;23.60;99.90
10536;DHT22;5316;49.538;8.352;2023-08-12T00:23:04;23.60;99.90
10536;DHT22;5316;49.538;8.352;2023-08-12T00:25:33;23.60;99.90
10536;DHT22;5316;49.538;8.352;2023-08-12T00:28:00;23.60;99.90
10536;DHT22;5316;49.538;8.352;2023-08-12T00:30:27;23.60;99.90
10536;DHT22;5316;49.538;8.352;2023-08-12T00:32:53;23.60;99.90
10536;DHT22;5316;49.538;8.352;2023-08-12T00:35:20;23.60;99.90
10536;DHT22;5316;49.538;8.352;2023-08-12T00:37:47;23.60;99.90
10536;DHT22;5316;49.538;8.352;2023-08-12T00:40:14;23.60;99.90
10536;DHT22;5316;49.538;8.352;2023-08-12T00:42:42;23.60;99.90
10536;DHT22;5316;49.538;8.352;2023-08-12T00:45:10;23.60;99.90
10536;DHT22;5316;49.538;8.352;2023-08-12T00:47:39;23.60;99.90
10536;DHT22;5316;49.538;8.352;2023-08-12T00:50:08;23.50;1.00
10536;DHT22;5316;49.538;8.352;2023-08-12T00:52:35;23.50;1.00
10536;DHT22;5316;49.538;8.352;2023-08-12T00:55:03;23.50;1.00
10536;DHT22;5316;49.538;8.352;2023-08-12T00:57:30;23.40;99.90
10536;DHT22;5316;49.538;8.352;2023-08-12T00:59:59;23.40;99.90
10536;DHT22;5316;49.538;8.352;2023-08-12T01:02:26;23.40;99.90
10536;DHT22;5316;49.538;8.352;2023-08-12T01:04:53;23.30;1.00
10536;DHT22;5316;49.538;8.352;2023-08-12T01:07:20;23.30;1.00
10536;DHT22;5316;49.538;8.352;2023-08-12T01:09:47;23.30;74.10
10536;DHT22;5316;49.538;8.352;2023-08-12T01:12:18;23.20;99.90
10536;DHT22;5316;49.538;8.352;2023-08-12T01:14:53;23.20;1.00
10536;DHT22;5316;49.538;8.352;2023-08-12T01:17:24;23.10;1.00
10536;DHT22;5316;49.538;8.352;2023-08-12T01:19:53;23.00;99.90
10536;DHT22;5316;49.538;8.352;2023-08-12T01:22:21;23.00;99.90
10536;DHT22;5316;49.538;8.352;2023-08-12T01:24:52;22.90;1.00
10536;DHT22;5316;49.538;8.352;2023-08-12T01:27:18;22.90;33.30
10536;DHT22;5316;49.538;8.352;2023-08-12T01:29:47;22.80;99.90
10536;DHT22;5316;49.538;8.352;2023-08-12T01:32:22;22.80;1.00
10536;DHT22;5316;49.538;8.352;2023-08-12T01:34:53;22.70;1.00
10536;DHT22;5316;49.538;8.352;2023-08-12T01:37:25;22.70;4.60
10536;DHT22;5316;49.538;8.352;2023-08-12T01:39:55;22.70;99.90
10536;DHT22;5316;49.538;8.352;2023-08-12T01:42:24;22.60;99.90
10536;DHT22;5316;49.538;8.352;2023-08-12T01:44:51;22.70;99.90
10536;DHT22;5316;49.538;8.352;2023-08-12T01:47:18;22.70;99.90
10536;DHT22;5316;49.538;8.352;2023-08-12T01:49:45;22.80;1.00
10536;DHT22;5316;49.538;8.352;2023-08-12T01:52:12;22.80;1.00
10536;DHT22;5316;49.538;8.352;2023-08-12T01:54:40;22.80;99.90
10536;DHT22;5316;49.538;8.352;2023-08-12T01:57:08;22.80;1.00
10536;DHT22;5316;49.538;8.352;2023-08-12T01:59:36;22.70;99.90
10536;DHT22;5316;49.538;8.352;2023-08-12T02:02:05;22.70;99.90
10536;DHT22;5316;49.538;8.352;2023-08-12T02:04:32;22.60;1.00
10536;DHT22;5316;49.538;8.352;2023-08-12T02:07:00;22.60;1.00
10536;DHT22;5316;49.538;8.352;2023-08-12T02:09:26;22.50;99.90
10536;DHT22;5316;49.538;8.352;2023-08-12T02:11:53;22.50;99.90
10536;DHT22;5316;49.538;8.352;2023-08-12T02:14:22;22.50;99.90
10536;DHT22;5316;49.538;8.352;2023-08-12T02:16:48;22.50;99.90
10536;DHT22;5316;49.538;8.352;2023-08-12T02:19:15;22.40;1.00
10536;DHT22;5316;49.538;8.352;2023-08-12T02:21:44;22.30;1.00
10536;DHT22;5316;49.538;8.352;2023-08-12T02:24:11;22.30;1.00
10536;DHT22;5316;49.538;8.352;2023-08-12T02:26:38;22.10;8.30
10536;DHT22;5316;49.538;8.352;2023-08-12T02:29:05;22.00;33.30
10536;DHT22;5316;49.538;8.352;2023-08-12T02:31:34;22.00;8.70
10536;DHT22;5316;49.538;8.352;2023-08-12T02:34:01;21.90;1.00
10536;DHT22;5316;49.538;8.352;2023-08-12T02:36:28;22.00;1.00
10536;DHT22;5316;49.538;8.352;2023-08-12T02:38:55;22.00;1.00
10536;DHT22;5316;49.538;8.352;2023-08-12T02:41:22;22.00;99.90
10536;DHT22;5316;49.538;8.352;2023-08-12T02:43:49;22.10;99.90
10536;DHT22;5316;49.538;8.352;2023-08-12T02:46:15;22.10;99.90
10536;DHT22;5316;49.538;8.352;2023-08-12T02:48:45;22.10;1.00
10536;DHT22;5316;49.538;8.352;2023-08-12T02:51:12;22.20;99.90
10536;DHT22;5316;49.538;8.352;2023-08-12T02:53:39;22.30;99.90
10536;DHT22;5316;49.538;8.352;2023-08-12T02:56:06;22.30;8.20
10536;DHT22;5316;49.538;8.352;2023-08-12T02:58:33;22.40;1.00
10536;DHT22;5316;49.538;8.352;2023-08-12T03:01:00;22.50;1.00
10536;DHT22;5316;49.538;8.352;2023-08-12T03:03:29;22.60;99.90
10536;DHT22;5316;49.538;8.352;2023-08-12T03:05:57;22.60;26.30
10536;DHT22;5316;49.538;8.352;2023-08-12T03:08:25;22.70;99.90
10536;DHT22;5316;49.538;8.352;2023-08-12T03:10:58;22.60;99.90
10536;DHT22;5316;49.538;8.352;2023-08-12T03:13:26;22.70;1.00
10536;DHT22;5316;49.538;8.352;2023-08-12T03:15:53;22.70;99.90
10536;DHT22;5316;49.538;8.352;2023-08-12T03:18:20;22.70;1.00
10536;DHT22;5316;49.538;8.352;2023-08-12T03:20:47;22.70;1.00
10536;DHT22;5316;49.538;8.352;2023-08-12T03:23:16;22.70;1.00
10536;DHT22;5316;49.538;8.352;2023-08-12T03:25:43;22.70;54.90
10536;DHT22;5316;49.538;8.352;2023-08-12T03:28:10;22.60;1.00
10536;DHT22;5316;49.538;8.352;2023-08-12T03:30:37;22.60;1.00
10536;DHT22;5316;49.538;8.352;2023-08-12T03:33:05;22.60;82.50
10536;DHT22;5316;49.538;8.352;2023-08-12T03:35:33;22.60;99.90
10536;DHT22;5316;49.538;8.352;2023-08-12T03:38:00;22.70;1.00
10536;DHT22;5316;49.538;8.352;2023-08-12T03:40:28;22.70;99.90
10536;DHT22;5316;49.538;8.352;2023-08-12T03:42:55;22.80;1.00
10536;DHT22;5316;49.538;8.352;2023-08-12T03:45:22;22.70;99.90
10536;DHT22;5316;49.538;8.352;2023-08-12T03:47:49;22.70;1.00
10536;DHT22;5316;49.538;8.352;2023-08-12T03:50:16;22.70;1.00
10536;DHT22;5316;49.538;8.352;2023-08-12T03:55:18;22.70;1.00
10536;DHT22;5316;49.538;8.352;2023-08-12T03:57:46;22.60;99.90
10536;DHT22;5316;49.538;8.352;2023-08-12T04:00:13;22.70;1.00
10536;DHT22;5316;49.538;8.352;2023-08-12T04:02:40;22.60;1.00
10536;DHT22;5316;49.538;8.352;2023-08-12T04:05:07;22.60;1.00
10536;DHT22;5316;49.538;8.352;2023-08-12T04:07:36;22.60;99.90
10536;DHT22;5316;49.538;8.352;2023-08-12T04:10:03;22.60;72.20
10536;DHT22;5316;49.538;8.352;2023-08-12T04:12:29;22.60;99.90
10536;DHT22;5316;49.538;8.352;2023-08-12T04:14:58;22.50;1.00
10536;DHT22;5316;49.538;8.352;2023-08-12T04:17:25;22.50;1.00
10536;DHT22;5316;49.538;8.352;2023-08-12T04:19:52;22.60;99.90
10536;DHT22;5316;49.538;8.352;2023-08-12T04:22:19;22.60;99.90
10536;DHT22;5316;49.538;8.352;2023-08-12T04:24:46;22.60;1.00
10536;DHT22;5316;49.538;8.352;2023-08-12T04:27:13;22.60;99.90
10536;DHT22;5316;49.538;8.352;2023-08-12T04:29:41;22.60;99.90
10536;DHT22;5316;49.538;8.352;2023-08-12T04:32:10;22.60;99.90
10536;DHT22;5316;49.538;8.352;2023-08-12T04:34:37;22.50;1.00
10536;DHT22;5316;49.538;8.352;2023-08-12T04:37:04;22.50;1.00
10536;DHT22;5316;49.538;8.352;2023-08-12T04:39:31;22.50;1.00
10536;DHT22;5316;49.538;8.352;2023-08-12T04:41:58;22.40;65.40
10536;DHT22;5316;49.538;8.352;2023-08-12T04:44:25;22.30;99.90
10536;DHT22;5316;49.538;8.352;2023-08-12T04:46:52;22.30;99.90
10536;DHT22;5316;49.538;8.352;2023-08-12T04:49:20;22.30;99.90
10536;DHT22;5316;49.538;8.352;2023-08-12T04:51:51;22.30;99.90
10536;DHT22;5316;49.538;8.352;2023-08-12T04:54:18;22.30;99.90
10536;DHT22;5316;49.538;8.352;2023-08-12T04:56:45;22.20;99.90
10536;DHT22;5316;49.538;8.352;2023-08-12T04:59:12;22.20;99.90
10536;DHT22;5316;49.538;8.352;2023-08-12T05:01:39;22.10;99.90
10536;DHT22;5316;49.538;8.352;2023-08-12T05:04:06;22.10;99.90
10536;DHT22;5316;49.538;8.352;2023-08-12T05:06:34;22.10;99.90
10536;DHT22;5316;49.538;8.352;2023-08-12T05:09:01;22.10;99.90
10536;DHT22;5316;49.538;8.352;2023-08-12T05:11:28;22.10;99.90
10536;DHT22;5316;49.538;8.352;2023-08-12T05:13:55;22.10;1.00
10536;DHT22;5316;49.538;8.352;2023-08-12T05:16:24;22.10;1.00
10536;DHT22;5316;49.538;8.352;2023-08-12T05:18:51;22.20;99.90
10536;DHT22;5316;49.538;8.352;2023-08-12T05:21:18;22.20;99.90
10536;DHT22;5316;49.538;8.352;2023-08-12T05:23:46;22.10;1.00
10536;DHT22;5316;49.538;8.352;2023-08-12T05:26:13;22.20;99.90
10536;DHT22;5316;49.538;8.352;2023-08-12T05:28:40;22.20;1.00
10536;DHT22;5316;49.538;8.352;2023-08-12T05:31:07;22.20;1.00
10536;DHT22;5316;49.538;8.352;2023-08-12T05:33:34;22.20;99.90
10536;DHT22;5316;49.538;8.352;2023-08-12T05:36:01;22.20;99.90
10536;DHT22;5316;49.538;8.352;2023-08-12T05:38:29;22.30;99.90
10536;DHT22;5316;49.538;8.352;2023-08-12T05:40:57;22.40;99.90
10536;DHT22;5316;49.538;8.352;2023-08-12T05:43:24;22.50;99.90
10536;DHT22;5316;49.538;8.352;2023-08-12T05:45:51;22.60;99.90
10536;DHT22;5316;49.538;8.352;2023-08-12T05:48:18;22.60;99.90
10536;DHT22;5316;49.538;8.352;2023-08-12T05:50:44;22.60;99.90
10536;DHT22;5316;49.538;8.352;2023-08-12T05:53:11;22.70;99.90
10536;DHT22;5316;49.538;8.352;2023-08-12T05:55:38;22.70;99.90
10536;DHT22;5316;49.538;8.352;2023-08-12T05:58:08;22.80;1.00
10536;DHT22;5316;49.538;8.352;2023-08-12T06:00:34;22.90;6.70
10536;DHT22;5316;49.538;8.352;2023-08-12T06:03:05;22.90;7.80
10536;DHT22;5316;49.538;8.352;2023-08-12T06:06:23;23.10;1.00
10536;DHT22;5316;49.538;8.352;2023-08-12T06:08:50;23.20;1.00
10536;DHT22;5316;49.538;8.352;2023-08-12T06:11:19;23.30;1.00
10536;DHT22;5316;49.538;8.352;2023-08-12T06:13:47;23.40;99.90
10536;DHT22;5316;49.538;8.352;2023-08-12T06:16:15;23.50;54.60
10536;DHT22;5316;49.538;8.352;2023-08-12T06:18:43;23.60;1.00
10536;DHT22;5316;49.538;8.352;2023-08-12T06:21:11;23.80;1.00
10536;DHT22;5316;49.538;8.352;2023-08-12T06:23:40;24.00;99.90
10536;DHT22;5316;49.538;8.352;2023-08-12T06:26:16;24.10;49.30
10536;DHT22;5316;49.538;8.352;2023-08-12T06:28:55;24.20;99.90
10536;DHT22;5316;49.538;8.352;2023-08-12T06:31:23;24.20;99.90
10536;DHT22;5316;49.538;8.352;2023-08-12T06:33:50;24.30;1.00
10536;DHT22;5316;49.538;8.352;2023-08-12T06:36:16;24.30;99.90
10536;DHT22;5316;49.538;8.352;2023-08-12T06:38:43;24.50;1.00
10536;DHT22;5316;49.538;8.352;2023-08-12T06:41:11;24.50;1.00
10536;DHT22;5316;49.538;8.352;2023-08-12T06:43:38;24.50;99.90
10536;DHT22;5316;49.538;8.352;2023-08-12T06:46:06;24.50;85.60
10536;DHT22;5316;49.538;8.352;2023-08-12T06:48:33;24.50;99.90
10536;DHT22;5316;49.538;8.352;2023-08-12T06:51:12;24.50;99.90
10536;DHT22;5316;49.538;8.352;2023-08-12T06:53:42;24.50;99.90
10536;DHT22;5316;49.538;8.352;2023-08-12T06:56:13;24.50;99.90
10536;DHT22;5316;49.538;8.352;2023-08-12T06:58:45;24.40;1.00
10536;DHT22;5316;49.538;8.352;2023-08-12T07:01:21;24.40;1.00
10536;DHT22;5316;49.538;8.352;2023-08-12T07:03:48;24.50;99.90
10536;DHT22;5316;49.538;8.352;2023-08-12T07:06:16;24.50;99.90
10536;DHT22;5316;49.538;8.352;2023-08-12T07:08:42;24.50;99.90
10536;DHT22;5316;49.538;8.352;2023-08-12T07:11:09;24.50;1.00
10536;DHT22;5316;49.538;8.352;2023-08-12T07:13:36;24.50;99.90
10536;DHT22;5316;49.538;8.352;2023-08-12T07:16:03;24.60;99.90
10536;DHT22;5316;49.538;8.352;2023-08-12T07:18:32;24.60;1.00
10536;DHT22;5316;49.538;8.352;2023-08-12T07:20:59;24.70;99.90
10536;DHT22;5316;49.538;8.352;2023-08-12T07:23:27;24.70;42.50
10536;DHT22;5316;49.538;8.352;2023-08-12T07:25:54;24.70;99.90
10536;DHT22;5316;49.538;8.352;2023-08-12T07:28:22;24.60;47.40
10536;DHT22;5316;49.538;8.352;2023-08-12T07:30:50;24.80;1.00
10536;DHT22;5316;49.538;8.352;2023-08-12T07:33:19;24.80;99.90
10536;DHT22;5316;49.538;8.352;2023-08-12T07:35:47;24.80;1.00
10536;DHT22;5316;49.538;8.352;2023-08-12T07:38:16;24.90;65.30
10536;DHT22;5316;49.538;8.352;2023-08-12T07:40:43;25.00;99.90
10536;DHT22;5316;49.538;8.352;2023-08-12T07:43:11;25.10;1.00
10536;DHT22;5316;49.538;8.352;2023-08-12T07:45:38;25.10;1.00
10536;DHT22;5316;49.538;8.352;2023-08-12T07:48:05;25.10;99.90
10536;DHT22;5316;49.538;8.352;2023-08-12T07:50:32;25.00;99.90
10536;DHT22;5316;49.538;8.352;2023-08-12T07:53:01;25.00;99.90
10536;DHT22;5316;49.538;8.352;2023-08-12T07:55:28;25.10;99.90
10536;DHT22;5316;49.538;8.352;2023-08-12T07:57:55;25.20;99.90
10536;DHT22;5316;49.538;8.352;2023-08-12T08:00:22;25.30;11.00
10536;DHT22;5316;49.538;8.352;2023-08-12T08:02:49;25.30;1.00
10536;DHT22;5316;49.538;8.352;2023-08-12T08:05:16;25.40;99.90
10536;DHT22;5316;49.538;8.352;2023-08-12T08:07:43;25.50;99.90
10536;DHT22;5316;49.538;8.352;2023-08-12T08:13:24;25.50;99.90
10536;DHT22;5316;49.538;8.352;2023-08-12T08:15:51;25.60;99.90
10536;DHT22;5316;49.538;8.352;2023-08-12T08:18:18;25.60;1.00
10536;DHT22;5316;49.538;8.352;2023-08-12T08:20:45;25.70;1.00
10536;DHT22;5316;49.538;8.352;2023-08-12T08:23:12;25.80;1.00
10536;DHT22;5316;49.538;8.352;2023-08-12T08:25:39;25.70;1.00
10536;DHT22;5316;49.538;8.352;2023-08-12T08:28:06;25.70;1.00
10536;DHT22;5316;49.538;8.352;2023-08-12T08:30:35;25.80;1.00
10536;DHT22;5316;49.538;8.352;2023-08-12T08:33:02;25.90;1.00
10536;DHT22;5316;49.538;8.352;2023-08-12T08:35:29;25.90;1.00
10536;DHT22;5316;49.538;8.352;2023-08-12T08:37:56;26.10;99.90
10536;DHT22;5316;49.538;8.352;2023-08-12T08:40:23;26.20;99.90
10536;DHT22;5316;49.538;8.352;2023-08-12T08:42:52;26.30;99.90
10536;DHT22;5316;49.538;8.352;2023-08-12T08:45:21;26.50;99.90
10536;DHT22;5316;49.538;8.352;2023-08-12T08:47:50;26.60;1.00
10536;DHT22;5316;49.538;8.352;2023-08-12T08:50:21;26.60;1.00
10536;DHT22;5316;49.538;8.352;2023-08-12T08:52:50;26.60;1.00
10536;DHT22;5316;49.538;8.352;2023-08-12T08:55:18;26.60;1.00
10536;DHT22;5316;49.538;8.352;2023-08-12T08:57:45;26.60;1.00
10536;DHT22;5316;49.538;8.352;2023-08-12T09:00:13;26.70;1.00
10536;DHT22;5316;49.538;8.352;2023-08-12T09:02:41;26.80;1.00
10536;DHT22;5316;49.538;8.352;2023-08-12T09:05:11;26.80;99.90
10536;DHT22;5316;49.538;8.352;2023-08-12T09:07:41;26.80;99.90
10536;DHT22;5316;49.538;8.352;2023-08-12T09:10:10;26.90;99.90
10536;DHT22;5316;49.538;8.352;2023-08-12T09:12:37;26.90;99.90
10536;DHT22;5316;49.538;8.352;2023-08-12T09:15:05;26.80;99.90
10536;DHT22;5316;49.538;8.352;2023-08-12T09:17:33;26.90;99.90
10536;DHT22;5316;49.538;8.352;2023-08-12T09:20:00;26.90;99.90
10536;DHT22;5316;49.538;8.352;2023-08-12T09:22:30;27.00;99.90
10536;DHT22;5316;49.538;8.352;2023-08-12T09:24:57;27.10;99.90
10536;DHT22;5316;49.538;8.352;2023-08-12T09:27:24;27.10;99.90
10536;DHT22;5316;49.538;8.352;2023-08-12T16:50:20;25.90;99.90
10536;DHT22;5316;49.538;8.352;2023-08-12T16:52:50;25.80;99.90
10536;DHT22;5316;49.538;8.352;2023-08-12T16:58:15;25.70;99.90
10536;DHT22;5316;49.538;8.352;2023-08-12T17:00:44;25.70;88.50
10536;DHT22;5316;49.538;8.352;2023-08-12T17:03:12;25.60;80.40
10536;DHT22;5316;49.538;8.352;2023-08-12T17:09:32;25.50;1.00
10536;DHT22;5316;49.538;8.352;2023-08-12T17:12:08;25.70;18.20
10536;DHT22;5316;49.538;8.352;2023-08-12T17:14:49;25.80;1.00
10536;DHT22;5316;49.538;8.352;2023-08-12T17:17:29;25.80;1.00
10536;DHT22;5316;49.538;8.352;2023-08-12T17:20:03;25.90;1.00
10536;DHT22;5316;49.538;8.352;2023-08-12T17:22:40;26.20;1.00
10536;DHT22;5316;49.538;8.352;2023-08-12T17:25:32;26.50;1.00
10536;DHT22;5316;49.538;8.352;2023-08-12T17:35:48;27.80;1.00
10536;DHT22;5316;49.538;8.352;2023-08-12T19:00:56;24.50;1.00
10536;DHT22;5316;49.538;8.352;2023-08-12T19:04:20;24.30;1.00
10536;DHT22;5316;49.538;8.352;2023-08-12T19:07:37;24.30;1.00
10536;DHT22;5316;49.538;8.352;2023-08-12T19:10:39;24.30;1.00
10536;DHT22;5316;49.538;8.352;2023-08-12T19:13:53;24.20;1.00
10536;DHT22;5316;49.538;8.352;2023-08-12T19:23:56;24.00;1.00
10536;DHT22;5316;49.538;8.352;2023-08-12T19:27:06;23.90;1.00
10536;DHT22;5316;49.538;8.352;2023-08-12T19:29:55;24.00;1.00
10536;DHT22;5316;49.538;8.352;2023-08-12T19:32:50;24.00;1.00
10536;DHT22;5316;49.538;8.352;2023-08-12T19:35:23;23.90;1.00
10536;DHT22;5316;49.538;8.352;2023-08-12T19:38:08;24.00;1.00
10536;DHT22;5316;49.538;8.352;2023-08-12T19:40:49;23.90;1.00
10536;DHT22;5316;49.538;8.352;2023-08-12T19:45:01;23.90;1.00
10536;DHT22;5316;49.538;8.352;2023-08-12T19:46:45;23.90;1.00
10536;DHT22;5316;49.538;8.352;2023-08-12T19:49:56;23.80;1.00
10536;DHT22;5316;49.538;8.352;2023-08-12T20:10:15;23.60;1.00
10536;DHT22;5316;49.538;8.352;2023-08-12T20:13:05;23.60;42.10
10536;DHT22;5316;49.538;8.352;2023-08-12T20:15:40;23.50;99.90
10536;DHT22;5316;49.538;8.352;2023-08-12T20:18:18;23.40;99.90
10536;DHT22;5316;49.538;8.352;2023-08-12T20:21:00;23.40;99.90
10536;DHT22;5316;49.538;8.352;2023-08-12T20:23:31;23.30;99.90
10536;DHT22;5316;49.538;8.352;2023-08-12T20:26:13;23.30;99.90
10536;DHT22;5316;49.538;8.352;2023-08-12T20:29:02;23.20;99.90
10536;DHT22;5316;49.538;8.352;2023-08-12T20:31:51;23.20;99.90
10536;DHT22;5316;49.538;8.352;2023-08-12T20:34:29;23.10;99.90
10536;DHT22;5316;49.538;8.352;2023-08-12T20:37:08;23.10;99.90
10536;DHT22;5316;49.538;8.352;2023-08-12T20:39:44;23.10;99.90
10536;DHT22;5316;49.538;8.352;2023-08-12T20:45:34;22.90;99.90
10536;DHT22;5316;49.538;8.352;2023-08-12T20:48:07;22.80;99.90
10536;DHT22;5316;49.538;8.352;2023-08-12T20:51:18;22.80;99.90
10536;DHT22;5316;49.538;8.352;2023-08-12T20:53:54;22.80;99.90
10536;DHT22;5316;49.538;8.352;2023-08-12T20:56:24;22.70;99.90
10536;DHT22;5316;49.538;8.352;2023-08-12T20:58:59;22.70;99.90
10536;DHT22;5316;49.538;8.352;2023-08-12T21:01:30;22.70;99.90
10536;DHT22;5316;49.538;8.352;2023-08-12T21:04:02;22.60;99.90
10536;DHT22;5316;49.538;8.352;2023-08-12T21:06:45;22.60;99.90
10536;DHT22;5316;49.538;8.352;2023-08-12T21:13:36;22.60;99.90
10536;DHT22;5316;49.538;8.352;2023-08-12T21:16:05;22.50;99.90
10536;DHT22;5316;49.538;8.352;2023-08-12T21:18:40;22.50;99.90
10536;DHT22;5316;49.538;8.352;2023-08-12T21:21:14;22.50;99.90
10536;DHT22;5316;49.538;8.352;2023-08-12T21:23:45;22.50;99.90
10536;DHT22;5316;49.538;8.352;2023-08-12T21:26:15;22.50;99.90
10536;DHT22;5316;49.538;8.352;2023-08-12T21:28:47;22.50;99.90
10536;DHT22;5316;49.538;8.352;2023-08-12T21:31:53;22.50;99.90
10536;DHT22;5316;49.538;8.352;2023-08-12T21:38:08;22.50;99.90
10536;DHT22;5316;49.538;8.352;2023-08-12T21:40:39;22.50;99.90
10536;DHT22;5316;49.538;8.352;2023-08-12T21:43:11;22.40;99.90
10536;DHT22;5316;49.538;8.352;2023-08-12T21:45:51;22.50;99.90
10536;DHT22;5316;49.538;8.352;2023-08-12T21:48:37;22.50;99.90
10536;DHT22;5316;49.538;8.352;2023-08-12T21:51:07;22.50;99.90
10536;DHT22;5316;49.538;8.352;2023-08-12T21:53:44;22.40;99.90
10536;DHT22;5316;49.538;8.352;2023-08-12T21:56:18;22.40;99.90
10536;DHT22;5316;49.538;8.352;2023-08-12T21:58:49;22.40;99.90
10536;DHT22;5316;49.538;8.352;2023-08-12T22:01:48;22.30;99.90
10536;DHT22;5316;49.538;8.352;2023-08-12T22:04:20;22.30;99.90
10536;DHT22;5316;49.538;8.352;2023-08-12T22:06:51;22.20;99.90
10536;DHT22;5316;49.538;8.352;2023-08-12T22:09:26;22.20;99.90
10536;DHT22;5316;49.538;8.352;2023-08-12T22:12:28;22.20;99.90
10536;DHT22;5316;49.538;8.352;2023-08-12T22:15:17;22.10;99.90
10536;DHT22;5316;49.538;8.352;2023-08-12T22:18:05;22.00;99.90
10536;DHT22;5316;49.538;8.352;2023-08-12T22:20:35;22.10;99.90
10536;DHT22;5316;49.538;8.352;2023-08-12T22:23:11;22.00;99.90
10536;DHT22;5316;49.538;8.352;2023-08-12T22:25:43;22.00;99.90
10536;DHT22;5316;49.538;8.352;2023-08-12T22:28:14;22.00;99.90
10536;DHT22;5316;49.538;8.352;2023-08-12T22:30:45;21.90;99.90
10536;DHT22;5316;49.538;8.352;2023-08-12T22:33:15;21.90;99.90
10536;DHT22;5316;49.538;8.352;2023-08-12T22:36:10;21.90;99.90
10536;DHT22;5316;49.538;8.352;2023-08-12T22:39:01;21.80;99.90
10536;DHT22;5316;49.538;8.352;2023-08-12T22:41:52;21.80;99.90
10536;DHT22;5316;49.538;8.352;2023-08-12T22:44:21;21.80;99.90
10536;DHT22;5316;49.538;8.352;2023-08-12T22:46:52;21.80;99.90
10536;DHT22;5316;49.538;8.352;2023-08-12T22:49:20;21.80;99.90
10536;DHT22;5316;49.538;8.352;2023-08-12T22:51:47;21.80;99.90
10536;DHT22;5316;49.538;8.352;2023-08-12T22:54:14;21.80;99.90
10536;DHT22;5316;49.538;8.352;2023-08-12T22:56:41;21.70;99.90
10536;DHT22;5316;49.538;8.352;2023-08-12T22:59:10;21.80;99.90
10536;DHT22;5316;49.538;8.352;2023-08-12T23:01:37;21.70;99.90
10536;DHT22;5316;49.538;8.352;2023-08-12T23:04:05;21.60;99.90
10536;DHT22;5316;49.538;8.352;2023-08-12T23:06:32;21.60;99.90
10536;DHT22;5316;49.538;8.352;2023-08-12T23:09:00;21.60;99.90
10536;DHT22;5316;49.538;8.352;2023-08-12T23:11:26;21.50;99.90
10536;DHT22;5316;49.538;8.352;2023-08-12T23:13:54;21.50;99.90
10536;DHT22;5316;49.538;8.352;2023-08-12T23:16:22;21.50;99.90
10536;DHT22;5316;49.538;8.352;2023-08-12T23:18:49;21.40;99.90
10536;DHT22;5316;49.538;8.352;2023-08-12T23:21:17;21.40;99.90
10536;DHT22;5316;49.538;8.352;2023-08-12T23:23:44;21.40;99.90
10536;DHT22;5316;49.538;8.352;2023-08-12T23:26:11;21.40;99.90
10536;DHT22;5316;49.538;8.352;2023-08-12T23:28:38;21.30;99.90
10536;DHT22;5316;49.538;8.352;2023-08-12T23:31:05;21.30;99.90
10536;DHT22;5316;49.538;8.352;2023-08-12T23:33:34;21.30;99.90
10536;DHT22;5316;49.538;8.352;2023-08-12T23:36:01;21.40;99.90
10536;DHT22;5316;49.538;8.352;2023-08-12T23:38:28;21.30;99.90
10536;DHT22;5316;49.538;8.352;2023-08-12T23:40:56;21.20;99.90
10536;DHT22;5316;49.538;8.352;2023-08-12T23:43:23;21.20;99.90
10536;DHT22;5316;49.538;8.352;2023-08-12T23:45:50;21.20;99.90
10536;DHT22;5316;49.538;8.352;2023-08-12T23:48:16;21.10;99.90
10536;DHT22;5316;49.538;8.352;2023-08-12T23:50:45;21.10;99.90
10536;DHT22;5316;49.538;8.352;2023-08-12T23:53:12;21.10;99.90
10536;DHT22;5316;49.538;8.352;2023-08-12T23:55:40;21.10;99.90
10536;DHT22;5316;49.538;8.352;2023-08-12T23:58:06;21.10;99.90
